createdAt,value
2018-06-03T00:02:14.392Z,99.20
2018-06-03T00:04:44.819Z,99.40
2018-06-03T00:07:15.285Z,99.60
2018-06-03T00:09:46.143Z,99.70
2018-06-03T00:12:16.602Z,99.60
2018-06-03T00:14:47.100Z,99.80
2018-06-03T00:17:17.551Z,99.80
2018-06-03T00:19:48.023Z,99.60
2018-06-03T00:22:31.107Z,99.80
2018-06-03T00:25:01.585Z,99.90
2018-06-03T00:27:32.022Z,99.70
2018-06-03T00:30:02.536Z,99.40
2018-06-03T00:32:32.984Z,99.40
2018-06-03T00:35:03.463Z,99.40
2018-06-03T00:37:33.883Z,99.40
2018-06-03T00:40:04.474Z,99.20
2018-06-03T00:42:34.911Z,99.10
2018-06-03T00:45:05.519Z,99.30
2018-06-03T00:47:35.967Z,99.20
2018-06-03T00:50:06.440Z,99.10
2018-06-03T00:52:36.869Z,99.20
2018-06-03T00:55:07.457Z,99.30
2018-06-03T00:57:37.884Z,99.30
2018-06-03T01:00:08.331Z,99.20
2018-06-03T01:02:38.810Z,99.40
2018-06-03T01:05:09.292Z,99.40
2018-06-03T01:07:39.759Z,99.40
2018-06-03T01:10:10.245Z,99.30
2018-06-03T01:12:40.723Z,99.40
2018-06-03T01:15:11.176Z,99.30
2018-06-03T01:17:41.652Z,99.40
2018-06-03T01:20:12.135Z,99.30
2018-06-03T01:22:42.564Z,99.20
2018-06-03T01:25:13.018Z,99.10
2018-06-03T01:27:43.447Z,99.30
2018-06-03T01:30:13.911Z,99.20
2018-06-03T01:32:44.339Z,99.30
2018-06-03T01:35:14.897Z,99.20
2018-06-03T01:37:45.315Z,99.50
2018-06-03T01:40:15.779Z,99.60
2018-06-03T01:42:46.308Z,99.50
2018-06-03T01:45:16.742Z,99.60
2018-06-03T01:47:47.174Z,99.60
2018-06-03T01:50:17.656Z,99.70
2018-06-03T01:52:48.076Z,99.70
2018-06-03T01:55:18.866Z,99.80
2018-06-03T01:57:49.283Z,99.90
2018-06-03T02:02:49.863Z,99.90
2018-06-03T02:05:20.312Z,99.90
2018-06-03T02:07:50.776Z,99.90
2018-06-03T02:10:21.238Z,99.90
2018-06-03T02:12:51.692Z,99.90
2018-06-03T02:15:22.115Z,99.90
2018-06-03T02:17:52.613Z,99.90
2018-06-03T02:20:23.075Z,99.90
2018-06-03T02:22:53.511Z,99.90
2018-06-03T02:25:23.967Z,99.90
2018-06-03T02:27:54.406Z,99.90
2018-06-03T02:30:24.927Z,99.90
2018-06-03T02:35:25.519Z,99.90
2018-06-03T02:37:55.955Z,99.90
2018-06-03T02:40:26.423Z,99.90
2018-06-03T02:42:56.868Z,99.90
2018-06-03T02:45:27.339Z,99.90
2018-06-03T02:47:57.820Z,99.90
2018-06-03T02:50:28.307Z,99.90
2018-06-03T02:52:58.753Z,99.90
2018-06-03T02:55:29.203Z,99.90
2018-06-03T02:57:59.688Z,99.90
2018-06-03T03:00:30.136Z,99.90
2018-06-03T03:03:00.583Z,99.90
2018-06-03T03:05:31.026Z,99.90
2018-06-03T03:08:01.472Z,99.90
2018-06-03T03:10:31.918Z,99.90
2018-06-03T03:13:02.372Z,99.90
2018-06-03T03:15:32.859Z,99.90
2018-06-03T03:18:03.338Z,99.90
2018-06-03T03:20:33.787Z,99.90
2018-06-03T03:23:04.278Z,99.90
2018-06-03T03:25:34.800Z,99.90
2018-06-03T03:28:05.247Z,99.90
2018-06-03T03:30:35.711Z,99.90
2018-06-03T03:33:06.156Z,99.90
2018-06-03T03:35:36.643Z,99.90
2018-06-03T03:38:07.088Z,99.90
2018-06-03T03:40:37.542Z,99.90
2018-06-03T03:43:08.003Z,99.90
2018-06-03T03:45:38.451Z,99.90
2018-06-03T03:48:08.908Z,99.90
2018-06-03T03:50:39.343Z,99.90
2018-06-03T03:53:09.795Z,99.90
2018-06-03T03:58:10.216Z,99.90
2018-06-03T04:00:40.663Z,99.90
2018-06-03T04:03:11.167Z,99.90
2018-06-03T04:05:41.640Z,99.90
2018-06-03T04:08:12.079Z,99.50
2018-06-03T04:10:42.571Z,98.60
2018-06-03T04:13:13.627Z,97.50
2018-06-03T04:15:44.113Z,96.30
2018-06-03T04:18:14.569Z,95.80
2018-06-03T04:20:45.039Z,94.30
2018-06-03T04:23:15.464Z,93.80
2018-06-03T04:25:45.955Z,92.40
2018-06-03T04:28:16.396Z,91.50
2018-06-03T04:30:47.050Z,90.50
2018-06-03T04:33:17.504Z,90.30
2018-06-03T04:35:48.002Z,91.40
2018-06-03T04:38:18.427Z,92.10
2018-06-03T04:40:48.868Z,92.70
2018-06-03T04:43:19.296Z,93.30
2018-06-03T04:45:49.766Z,93.40
2018-06-03T04:48:20.191Z,93.90
2018-06-03T04:50:50.675Z,94.60
2018-06-03T04:53:21.111Z,95.00
2018-06-03T04:55:51.659Z,95.20
2018-06-03T04:58:22.124Z,95.40
2018-06-03T05:00:52.562Z,96.10
2018-06-03T05:03:23.027Z,95.90
2018-06-03T05:05:53.469Z,95.90
2018-06-03T05:08:23.936Z,95.50
2018-06-03T05:10:54.371Z,95.50
2018-06-03T05:13:24.844Z,95.50
2018-06-03T05:15:55.331Z,95.60
2018-06-03T05:18:25.799Z,95.60
2018-06-03T05:20:56.264Z,95.50
2018-06-03T05:23:26.751Z,95.70
2018-06-03T05:25:57.219Z,95.70
2018-06-03T05:28:27.759Z,95.80
2018-06-03T05:30:58.195Z,95.80
2018-06-03T05:33:28.743Z,95.60
2018-06-03T05:35:59.187Z,95.30
2018-06-03T05:38:29.671Z,94.80
2018-06-03T05:41:00.097Z,94.80
2018-06-03T05:43:30.551Z,94.70
2018-06-03T05:46:00.996Z,94.10
2018-06-03T05:48:31.557Z,92.00
2018-06-03T05:51:02.015Z,90.20
2018-06-03T05:53:32.444Z,86.60
2018-06-03T05:56:02.928Z,83.40
2018-06-03T05:58:33.371Z,79.10
2018-06-03T06:01:03.936Z,76.20
2018-06-03T06:03:34.393Z,71.70
2018-06-03T06:06:04.839Z,70.70
2018-06-03T06:08:35.294Z,69.60
2018-06-03T06:11:05.799Z,66.90
2018-06-03T06:13:36.255Z,65.90
2018-06-03T06:16:06.879Z,66.80
2018-06-03T06:18:37.327Z,64.80
2018-06-03T06:21:07.895Z,62.40
2018-06-03T06:23:38.345Z,59.70
2018-06-03T06:26:08.851Z,61.20
2018-06-03T06:28:41.199Z,61.80
2018-06-03T06:31:11.641Z,61.40
2018-06-03T06:33:42.128Z,60.50
2018-06-03T06:36:12.586Z,62.20
2018-06-03T06:38:43.063Z,63.30
2018-06-03T06:41:13.612Z,63.90
2018-06-03T06:46:14.355Z,64.50
2018-06-03T06:48:44.808Z,62.70
2018-06-03T06:51:15.275Z,63.70
2018-06-03T06:53:45.728Z,62.70
2018-06-03T06:56:16.686Z,60.20
2018-06-03T06:58:47.172Z,58.80
2018-06-03T07:01:17.636Z,59.10
2018-06-03T07:03:48.100Z,59.70
2018-06-03T07:06:18.565Z,58.80
2018-06-03T07:08:49.075Z,58.40
2018-06-03T07:11:19.529Z,58.00
2018-06-03T07:13:50.020Z,58.50
2018-06-03T07:16:20.497Z,58.10
2018-06-03T07:18:51.036Z,57.70
2018-06-03T07:21:21.488Z,57.10
2018-06-03T07:23:51.987Z,57.70
2018-06-03T07:26:22.432Z,57.30
2018-06-03T07:28:52.904Z,56.70
2018-06-03T07:31:23.351Z,57.70
2018-06-03T07:33:53.916Z,56.10
2018-06-03T07:36:24.384Z,58.00
2018-06-03T07:38:57.787Z,56.30
2018-06-03T07:41:28.314Z,56.40
2018-06-03T07:43:58.854Z,55.60
2018-06-03T07:46:29.329Z,56.80
2018-06-03T07:48:59.809Z,57.60
2018-06-03T07:51:30.259Z,53.60
2018-06-03T07:54:00.716Z,53.90
2018-06-03T07:56:31.205Z,53.60
2018-06-03T07:59:04.941Z,54.90
2018-06-03T08:01:36.422Z,55.90
2018-06-03T08:04:06.874Z,54.60
2018-06-03T08:06:37.372Z,54.30
2018-06-03T08:09:08.951Z,55.70
2018-06-03T08:11:39.375Z,56.40
2018-06-03T08:14:09.868Z,54.50
2018-06-03T08:16:40.351Z,56.80
2018-06-03T08:19:10.855Z,53.50
2018-06-03T08:21:41.325Z,54.30
2018-06-03T08:24:11.768Z,52.40
2018-06-03T08:26:42.253Z,55.90
2018-06-03T08:29:12.706Z,54.60
2018-06-03T08:31:43.231Z,57.40
2018-06-03T08:34:13.698Z,55.90
2018-06-03T08:36:44.712Z,57.60
2018-06-03T08:39:15.239Z,57.50
2018-06-03T08:41:45.679Z,56.60
2018-06-03T08:44:16.127Z,53.90
2018-06-03T08:46:46.587Z,55.70
2018-06-03T08:49:17.033Z,55.90
2018-06-03T08:51:47.516Z,56.10
2018-06-03T08:54:18.016Z,58.10
2018-06-03T08:56:48.572Z,57.00
2018-06-03T08:59:19.068Z,55.00
2018-06-03T09:01:49.536Z,54.70
2018-06-03T09:04:20.017Z,57.10
2018-06-03T09:06:50.540Z,57.50
2018-06-03T09:09:20.999Z,56.10
2018-06-03T09:11:51.475Z,55.20
2018-06-03T09:14:21.961Z,54.80
2018-06-03T09:16:52.475Z,53.30
2018-06-03T09:19:22.973Z,52.80
2018-06-03T09:21:53.441Z,52.40
2018-06-03T09:24:23.927Z,53.40
2018-06-03T09:26:54.386Z,54.00
2018-06-03T09:29:24.900Z,54.60
2018-06-03T09:31:55.337Z,52.30
2018-06-03T09:34:25.844Z,53.70
2018-06-03T09:36:56.308Z,54.20
2018-06-03T09:39:26.841Z,56.40
2018-06-03T09:41:57.331Z,54.80
2018-06-03T09:44:27.901Z,54.00
2018-06-03T09:46:58.331Z,54.40
2018-06-03T09:49:28.811Z,51.20
2018-06-03T09:51:59.295Z,53.30
2018-06-03T09:54:29.780Z,54.70
2018-06-03T09:57:00.228Z,54.70
2018-06-03T09:59:30.732Z,54.20
2018-06-03T10:02:01.199Z,55.00
2018-06-03T10:04:31.801Z,53.10
2018-06-03T10:07:02.261Z,54.40
2018-06-03T10:09:32.766Z,55.10
2018-06-03T10:12:03.265Z,56.60
2018-06-03T10:14:33.764Z,55.10
2018-06-03T10:17:04.259Z,52.70
2018-06-03T10:19:34.698Z,53.50
2018-06-03T10:22:05.263Z,52.40
2018-06-03T10:27:05.714Z,53.20
2018-06-03T10:29:36.150Z,52.00
2018-06-03T10:32:06.659Z,54.70
2018-06-03T10:34:37.115Z,50.30
2018-06-03T10:37:07.639Z,54.10
2018-06-03T10:39:38.124Z,51.00
2018-06-03T10:42:08.587Z,50.70
2018-06-03T10:44:39.131Z,52.70
2018-06-03T10:47:09.579Z,53.40
2018-06-03T10:49:40.107Z,51.00
2018-06-03T10:52:10.593Z,51.00
2018-06-03T10:54:41.090Z,52.90
2018-06-03T10:57:11.616Z,52.30
2018-06-03T10:59:42.082Z,52.50
2018-06-03T11:02:12.567Z,51.10
2018-06-03T11:04:43.091Z,51.10
2018-06-03T11:07:13.588Z,51.70
2018-06-03T11:09:44.040Z,53.00
2018-06-03T11:12:14.544Z,49.80
2018-06-03T11:17:14.987Z,52.30
2018-06-03T11:19:45.495Z,51.50
2018-06-03T11:22:15.968Z,50.30
2018-06-03T11:24:46.458Z,49.40
2018-06-03T11:27:16.956Z,48.10
2018-06-03T11:29:47.436Z,48.60
2018-06-03T11:32:20.826Z,47.80
2018-06-03T11:34:51.340Z,47.10
2018-06-03T11:37:21.840Z,47.00
2018-06-03T11:39:52.319Z,50.30
2018-06-03T11:42:25.740Z,49.20
2018-06-03T11:44:56.211Z,51.60
2018-06-03T11:47:26.667Z,49.00
2018-06-03T11:49:57.086Z,49.80
2018-06-03T11:52:27.589Z,49.40
2018-06-03T11:54:58.024Z,50.70
2018-06-03T11:57:45.395Z,48.60
2018-06-03T12:00:15.941Z,49.30
2018-06-03T12:02:46.400Z,50.80
2018-06-03T12:05:16.859Z,48.60
2018-06-03T12:07:47.294Z,48.10
2018-06-03T12:10:17.755Z,50.10
2018-06-03T12:12:48.212Z,50.50
2018-06-03T12:15:18.644Z,49.50
2018-06-03T12:17:49.168Z,49.90
2018-06-03T12:20:19.689Z,50.60
2018-06-03T12:22:50.160Z,51.90
2018-06-03T12:25:20.628Z,49.50
2018-06-03T12:27:51.088Z,48.00
2018-06-03T12:30:21.539Z,49.10
2018-06-03T12:32:52.079Z,50.60
2018-06-03T12:35:22.515Z,50.10
2018-06-03T12:37:52.965Z,48.30
2018-06-03T12:40:23.504Z,49.80
2018-06-03T12:42:53.972Z,48.90
2018-06-03T12:45:24.734Z,47.50
2018-06-03T12:47:55.233Z,46.50
2018-06-03T12:50:25.747Z,45.30
2018-06-03T12:52:56.213Z,46.90
2018-06-03T12:55:26.633Z,46.00
2018-06-03T12:57:57.124Z,47.20
2018-06-03T13:00:27.567Z,47.50
2018-06-03T13:02:58.010Z,46.90
2018-06-03T13:05:28.435Z,47.20
2018-06-03T13:07:58.887Z,48.20
2018-06-03T13:10:29.336Z,47.10
2018-06-03T13:12:59.823Z,47.50
2018-06-03T13:15:30.340Z,45.80
2018-06-03T13:18:00.799Z,47.30
2018-06-03T13:20:31.252Z,47.80
2018-06-03T13:23:01.723Z,46.80
2018-06-03T13:25:32.161Z,48.50
2018-06-03T13:28:02.635Z,49.00
2018-06-03T13:30:33.079Z,47.60
2018-06-03T13:33:03.534Z,50.40
2018-06-03T13:35:33.978Z,48.50
2018-06-03T13:38:04.499Z,49.30
2018-06-03T13:40:34.976Z,48.70
2018-06-03T13:43:05.435Z,49.50
2018-06-03T13:45:35.923Z,50.30
2018-06-03T13:48:06.383Z,50.90
2018-06-03T13:50:36.842Z,49.90
2018-06-03T13:53:07.303Z,50.10
2018-06-03T13:55:37.739Z,49.20
2018-06-03T13:58:08.292Z,51.50
2018-06-03T14:00:38.731Z,49.20
2018-06-03T14:03:09.218Z,50.50
2018-06-03T14:05:39.663Z,49.30
2018-06-03T14:08:10.197Z,49.50
2018-06-03T14:10:40.645Z,49.50
2018-06-03T14:13:11.096Z,49.10
2018-06-03T14:15:41.607Z,49.50
2018-06-03T14:18:12.059Z,51.30
2018-06-03T14:20:42.548Z,48.40
2018-06-03T14:23:13.091Z,48.90
2018-06-03T14:25:43.559Z,49.50
2018-06-03T14:28:14.007Z,48.60
2018-06-03T14:30:44.483Z,48.90
2018-06-03T14:33:14.926Z,49.10
2018-06-03T14:35:45.435Z,50.20
2018-06-03T14:38:15.860Z,48.10
2018-06-03T14:40:46.367Z,48.40
2018-06-03T14:43:16.799Z,48.00
2018-06-03T14:45:47.279Z,48.20
2018-06-03T14:48:17.726Z,49.80
2018-06-03T14:50:48.217Z,48.60
2018-06-03T14:53:18.671Z,48.80
2018-06-03T14:55:49.140Z,49.10
2018-06-03T14:58:19.595Z,48.00
2018-06-03T15:00:50.004Z,48.50
2018-06-03T15:03:20.467Z,47.40
2018-06-03T15:05:50.911Z,48.40
2018-06-03T15:08:21.380Z,47.70
2018-06-03T15:10:52.002Z,48.70
2018-06-03T15:13:22.470Z,47.80
2018-06-03T15:15:52.927Z,49.20
2018-06-03T15:18:24.340Z,48.70
2018-06-03T15:20:54.815Z,49.70
2018-06-03T15:23:25.275Z,51.30
2018-06-03T15:25:55.742Z,53.50
2018-06-03T15:28:26.222Z,55.60
2018-06-03T15:30:56.648Z,63.30
2018-06-03T15:33:27.122Z,67.30
2018-06-03T15:35:57.596Z,68.20
2018-06-03T15:38:28.038Z,70.90
2018-06-03T15:40:58.535Z,75.00
2018-06-03T15:43:29.252Z,80.00
2018-06-03T15:45:59.808Z,84.50
2018-06-03T15:48:30.251Z,87.50
2018-06-03T15:51:00.723Z,86.60
2018-06-03T15:53:31.183Z,86.00
2018-06-03T15:56:01.655Z,90.40
2018-06-03T15:58:32.128Z,90.90
2018-06-03T16:01:02.555Z,91.50
2018-06-03T16:03:33.040Z,91.90
2018-06-03T16:06:03.479Z,91.90
2018-06-03T16:08:33.956Z,92.80
2018-06-03T16:11:04.421Z,93.70
2018-06-03T16:13:34.897Z,94.20
2018-06-03T16:16:05.411Z,94.60
2018-06-03T16:18:35.859Z,94.30
2018-06-03T16:21:06.316Z,94.50
2018-06-03T16:23:36.768Z,94.50
2018-06-03T16:26:07.326Z,94.60
2018-06-03T16:28:37.800Z,93.60
2018-06-03T16:31:08.259Z,93.50
2018-06-03T16:33:38.722Z,93.80
2018-06-03T16:36:09.183Z,93.40
2018-06-03T16:38:39.611Z,93.00
2018-06-03T16:41:10.135Z,92.00
2018-06-03T16:46:10.580Z,91.20
2018-06-03T16:48:41.059Z,91.70
2018-06-03T16:51:11.555Z,91.80
2018-06-03T16:53:42.036Z,90.50
2018-06-03T16:56:13.735Z,90.20
2018-06-03T16:58:44.203Z,90.40
2018-06-03T17:01:14.675Z,90.70
2018-06-03T17:03:45.200Z,90.70
2018-06-03T17:06:15.695Z,90.50
2018-06-03T17:08:46.195Z,90.10
2018-06-03T17:11:16.686Z,88.30
2018-06-03T17:13:47.184Z,89.60
2018-06-03T17:16:17.643Z,90.50
2018-06-03T17:18:48.139Z,90.00
2018-06-03T17:21:18.601Z,90.30
2018-06-03T17:23:49.107Z,90.10
2018-06-03T17:26:19.601Z,91.40
2018-06-03T17:28:50.063Z,91.50
2018-06-03T17:31:20.841Z,91.50
2018-06-03T17:33:52.623Z,91.60
2018-06-03T17:36:23.293Z,92.20
2018-06-03T17:38:53.809Z,92.60
2018-06-03T17:41:24.324Z,93.00
2018-06-03T17:43:54.833Z,92.80
2018-06-03T17:46:25.289Z,92.80
2018-06-03T17:48:55.807Z,93.10
2018-06-03T17:51:26.303Z,93.50
2018-06-03T17:53:56.811Z,94.30
2018-06-03T17:56:28.141Z,93.90
2018-06-03T17:58:58.648Z,94.00
2018-06-03T18:01:29.152Z,94.20
2018-06-03T18:03:59.649Z,94.20
2018-06-03T18:06:30.184Z,94.50
2018-06-03T18:09:00.639Z,94.80
2018-06-03T18:11:31.153Z,95.00
2018-06-03T18:14:01.637Z,95.30
2018-06-03T18:16:32.148Z,95.50
2018-06-03T18:19:02.635Z,95.30
2018-06-03T18:21:33.158Z,95.50
2018-06-03T18:24:03.700Z,95.60
2018-06-03T18:26:34.268Z,95.90
2018-06-03T18:29:04.759Z,96.20
2018-06-03T18:31:35.232Z,96.30
2018-06-03T18:34:05.735Z,96.70
2018-06-03T18:36:36.208Z,96.90
2018-06-03T18:39:08.900Z,97.00
2018-06-03T18:41:39.407Z,96.90
2018-06-03T18:44:09.929Z,97.00
2018-06-03T18:46:40.381Z,97.20
2018-06-03T18:49:10.832Z,97.20
2018-06-03T18:51:41.288Z,97.10
2018-06-03T18:54:11.819Z,97.10
2018-06-03T18:56:42.851Z,97.20
2018-06-03T18:59:13.377Z,97.20
2018-06-03T19:01:43.856Z,97.30
2018-06-03T19:04:14.356Z,97.40
2018-06-03T19:06:44.892Z,97.50
2018-06-03T19:09:15.357Z,97.70
2018-06-03T19:11:45.840Z,97.70
2018-06-03T19:14:16.331Z,97.60
2018-06-03T19:16:46.823Z,97.60
2018-06-03T19:19:17.355Z,97.70
2018-06-03T19:21:47.816Z,97.80
2018-06-03T19:24:19.180Z,97.90
2018-06-03T19:26:49.653Z,98.00
2018-06-03T19:29:20.147Z,98.10
2018-06-03T19:31:50.579Z,98.30
2018-06-03T19:34:21.035Z,98.40
2018-06-03T19:36:52.399Z,98.60
2018-06-03T19:39:23.608Z,98.70
2018-06-03T19:41:54.080Z,98.70
2018-06-03T19:44:24.630Z,98.90
2018-06-03T19:46:55.094Z,98.70
2018-06-03T19:49:25.557Z,98.60
2018-06-03T19:51:56.035Z,98.80
2018-06-03T19:54:26.487Z,98.80
2018-06-03T19:56:56.951Z,98.90
2018-06-03T19:59:27.424Z,99.10
2018-06-03T20:01:57.900Z,99.20
2018-06-03T20:04:28.385Z,99.10
2018-06-03T20:06:58.903Z,99.20
2018-06-03T20:09:29.352Z,99.10
2018-06-03T20:11:59.807Z,99.00
2018-06-03T20:14:30.311Z,98.90
2018-06-03T20:17:00.748Z,98.90
2018-06-03T20:19:31.298Z,98.80
2018-06-03T20:24:31.749Z,98.50
2018-06-03T20:27:02.227Z,98.30
2018-06-03T20:29:32.681Z,98.10
2018-06-03T20:32:03.140Z,98.10
2018-06-03T20:34:33.591Z,98.10
2018-06-03T20:37:04.036Z,97.90
2018-06-03T20:39:34.579Z,97.70
2018-06-03T20:42:05.079Z,97.50
2018-06-03T20:44:35.564Z,97.40
2018-06-03T20:47:06.009Z,97.20
2018-06-03T20:49:36.451Z,97.20
2018-06-03T20:52:06.966Z,97.30
2018-06-03T20:54:37.432Z,97.30
2018-06-03T20:57:07.885Z,97.60
2018-06-03T20:59:38.370Z,97.40
2018-06-03T21:02:08.896Z,97.60
2018-06-03T21:04:39.336Z,97.70
2018-06-03T21:07:09.767Z,97.90
2018-06-03T21:09:40.220Z,97.90
2018-06-03T21:12:10.650Z,97.90
2018-06-03T21:14:41.088Z,97.90
2018-06-03T21:17:11.504Z,97.90
2018-06-03T21:19:41.978Z,98.00
2018-06-03T21:22:12.396Z,98.20
2018-06-03T21:24:42.854Z,98.20
2018-06-03T21:27:13.284Z,98.40
2018-06-03T21:29:43.747Z,98.50
2018-06-03T21:32:14.219Z,98.80
2018-06-03T21:34:44.678Z,98.80
2018-06-03T21:37:15.099Z,98.90
2018-06-03T21:39:45.563Z,98.90
2018-06-03T21:42:16.032Z,99.10
2018-06-03T21:44:46.483Z,99.10
2018-06-03T21:47:16.944Z,99.20
2018-06-03T21:49:47.400Z,99.30
2018-06-03T21:52:17.823Z,99.30
2018-06-03T21:54:48.298Z,99.40
2018-06-03T21:57:18.733Z,99.50
2018-06-03T22:02:19.198Z,99.80
2018-06-03T22:04:49.635Z,99.90
2018-06-03T22:07:20.072Z,99.70
2018-06-03T22:09:52.391Z,99.70
2018-06-03T22:12:22.853Z,99.70
2018-06-03T22:14:53.295Z,99.40
2018-06-03T22:17:23.740Z,99.40
2018-06-03T22:19:54.185Z,99.30
2018-06-03T22:22:24.620Z,99.10
2018-06-03T22:24:55.058Z,99.20
2018-06-03T22:27:25.488Z,99.00
2018-06-03T22:29:55.939Z,98.90
2018-06-03T22:32:26.699Z,99.00
2018-06-03T22:34:57.238Z,98.90
2018-06-03T22:37:27.698Z,99.00
2018-06-03T22:39:58.142Z,99.00
2018-06-03T22:42:28.598Z,99.10
2018-06-03T22:44:59.024Z,99.00
2018-06-03T22:47:29.470Z,99.10
2018-06-03T22:49:59.895Z,99.00
2018-06-03T22:52:30.343Z,99.10
2018-06-03T22:55:00.761Z,99.10
2018-06-03T22:57:48.027Z,99.20
2018-06-03T23:00:25.091Z,99.30
2018-06-03T23:03:00.897Z,99.40
2018-06-03T23:05:31.401Z,99.40
2018-06-03T23:08:02.675Z,99.30
2018-06-03T23:10:33.107Z,99.30
2018-06-03T23:13:03.584Z,99.50
2018-06-03T23:15:34.020Z,99.40
2018-06-03T23:18:04.527Z,99.20
2018-06-03T23:20:35.008Z,99.40
2018-06-03T23:23:05.435Z,99.60
2018-06-03T23:25:35.920Z,99.50
2018-06-03T23:28:06.391Z,99.60
2018-06-03T23:30:36.832Z,99.60
2018-06-03T23:33:07.265Z,99.60
2018-06-03T23:35:37.799Z,99.60
2018-06-03T23:38:08.254Z,99.80
2018-06-03T23:40:38.691Z,99.90
2018-06-03T23:43:09.169Z,99.80
2018-06-03T23:45:39.592Z,99.80
2018-06-03T23:48:10.060Z,99.90
2018-06-03T23:50:40.480Z,99.90
2018-06-03T23:53:10.938Z,99.90
2018-06-03T23:55:41.377Z,99.90
2018-06-03T23:58:11.799Z,99.90
